createdAt,value
2017-10-25T00:01:19.652Z,85.48
2017-10-25T00:03:47.977Z,85.51
2017-10-25T00:06:16.290Z,85.48
2017-10-25T00:08:44.611Z,85.50
2017-10-25T00:11:13.699Z,85.40
2017-10-25T00:13:42.009Z,85.40
2017-10-25T00:16:10.334Z,85.43
2017-10-25T00:18:38.683Z,85.16
2017-10-25T00:21:07.007Z,85.19
2017-10-25T00:23:35.309Z,85.39
2017-10-25T00:26:04.412Z,85.48
2017-10-25T00:28:33.492Z,85.57
2017-10-25T00:31:01.801Z,85.57
2017-10-25T00:33:30.929Z,85.70
2017-10-25T00:35:59.250Z,85.78
2017-10-25T00:38:27.589Z,85.79
2017-10-25T00:40:55.889Z,85.90
2017-10-25T00:43:24.219Z,86.00
2017-10-25T00:45:53.324Z,86.12
2017-10-25T00:48:22.413Z,86.07
2017-10-25T00:50:51.500Z,86.05
2017-10-25T00:53:20.614Z,86.06
2017-10-25T00:55:49.711Z,86.05
2017-10-25T00:58:18.817Z,86.14
2017-10-25T01:00:47.909Z,86.14
2017-10-25T01:03:16.993Z,86.09
2017-10-25T01:05:45.335Z,86.16
2017-10-25T01:08:13.658Z,86.20
2017-10-25T01:10:41.983Z,86.18
2017-10-25T01:13:10.295Z,86.19
2017-10-25T01:15:38.645Z,86.24
2017-10-25T01:18:06.957Z,86.12
2017-10-25T01:20:35.258Z,86.18
2017-10-25T01:23:03.598Z,86.27
2017-10-25T01:25:31.997Z,86.55
2017-10-25T01:28:00.371Z,86.93
2017-10-25T01:30:28.701Z,86.90
2017-10-25T01:32:57.762Z,86.55
2017-10-25T01:35:26.066Z,86.34
2017-10-25T01:37:54.409Z,86.46
2017-10-25T01:40:22.713Z,87.08
2017-10-25T01:42:51.024Z,87.29
2017-10-25T01:45:20.111Z,87.60
2017-10-25T01:47:48.409Z,87.90
2017-10-25T01:50:17.505Z,88.11
2017-10-25T01:52:45.841Z,88.34
2017-10-25T01:55:14.167Z,88.43
2017-10-25T01:57:43.300Z,88.53
2017-10-25T02:00:11.612Z,88.57
2017-10-25T02:02:39.938Z,88.34
2017-10-25T02:05:09.036Z,88.42
2017-10-25T02:07:38.132Z,88.50
2017-10-25T02:10:06.474Z,88.52
2017-10-25T02:12:34.796Z,88.39
2017-10-25T02:15:03.107Z,88.31
2017-10-25T02:17:31.427Z,88.22
2017-10-25T02:19:59.757Z,88.25
2017-10-25T02:22:28.081Z,88.23
2017-10-25T02:24:56.431Z,87.79
2017-10-25T02:27:24.755Z,87.77
2017-10-25T02:29:53.065Z,87.59
2017-10-25T02:32:22.180Z,87.25
2017-10-25T02:34:50.498Z,86.82
2017-10-25T02:37:18.814Z,86.40
2017-10-25T02:39:47.128Z,86.15
2017-10-25T02:42:15.448Z,85.73
2017-10-25T02:44:43.783Z,85.50
2017-10-25T02:47:12.104Z,85.23
2017-10-25T02:49:40.435Z,84.84
2017-10-25T02:52:09.537Z,84.77
2017-10-25T02:54:38.626Z,84.80
2017-10-25T02:57:07.731Z,84.81
2017-10-25T02:59:36.827Z,84.94
2017-10-25T03:02:05.931Z,84.74
2017-10-25T03:04:34.240Z,84.59
2017-10-25T03:07:02.570Z,84.46
2017-10-25T03:09:30.896Z,84.45
2017-10-25T03:11:59.223Z,84.20
2017-10-25T03:14:27.544Z,84.07
2017-10-25T03:16:56.626Z,83.85
2017-10-25T03:19:25.734Z,83.85
2017-10-25T03:21:54.829Z,83.88
2017-10-25T03:24:23.163Z,83.70
2017-10-25T03:26:51.545Z,83.50
2017-10-25T03:29:19.895Z,83.36
2017-10-25T03:31:48.226Z,83.41
2017-10-25T03:34:16.567Z,83.46
2017-10-25T03:36:44.886Z,83.23
2017-10-25T03:39:13.194Z,83.27
2017-10-25T03:41:42.294Z,83.48
2017-10-25T03:44:11.406Z,83.36
2017-10-25T03:46:40.502Z,83.38
2017-10-25T03:49:09.587Z,83.41
2017-10-25T03:51:37.932Z,83.31
2017-10-25T03:54:06.254Z,83.17
2017-10-25T03:56:35.464Z,83.14
2017-10-25T03:59:04.587Z,83.04
2017-10-25T04:01:32.932Z,83.04
2017-10-25T04:04:01.251Z,83.11
2017-10-25T04:06:30.295Z,82.86
2017-10-25T04:08:58.609Z,83.00
2017-10-25T04:11:26.938Z,83.15
2017-10-25T04:13:55.275Z,83.19
2017-10-25T04:16:23.615Z,82.98
2017-10-25T04:18:51.938Z,82.92
2017-10-25T04:21:20.330Z,82.89
2017-10-25T04:23:48.646Z,82.80
2017-10-25T04:26:16.970Z,82.79
2017-10-25T04:28:46.042Z,82.76
2017-10-25T04:31:14.368Z,82.76
2017-10-25T04:33:42.716Z,82.69
2017-10-25T04:36:11.034Z,82.79
2017-10-25T04:38:39.352Z,82.92
2017-10-25T04:41:07.713Z,83.03
2017-10-25T04:43:36.018Z,83.14
2017-10-25T04:46:04.337Z,83.34
2017-10-25T04:48:33.428Z,83.36
2017-10-25T04:51:01.752Z,83.44
2017-10-25T04:53:30.074Z,83.54
2017-10-25T04:55:58.390Z,83.54
2017-10-25T04:58:26.707Z,83.75
2017-10-25T05:00:55.029Z,83.79
2017-10-25T05:03:24.116Z,83.77
2017-10-25T05:05:52.448Z,83.66
2017-10-25T05:08:20.774Z,83.63
2017-10-25T05:10:49.121Z,83.33
2017-10-25T05:13:17.480Z,83.42
2017-10-25T05:15:46.568Z,83.36
2017-10-25T05:18:15.650Z,83.36
2017-10-25T05:20:43.983Z,83.50
2017-10-25T05:23:12.304Z,83.60
2017-10-25T05:25:40.660Z,83.56
2017-10-25T05:28:09.003Z,83.57
2017-10-25T05:30:37.340Z,83.62
2017-10-25T05:33:05.690Z,83.85
2017-10-25T05:35:34.044Z,84.00
2017-10-25T05:38:03.139Z,83.98
2017-10-25T05:40:32.229Z,84.03
2017-10-25T05:43:01.336Z,84.02
2017-10-25T05:45:30.408Z,84.00
2017-10-25T05:47:58.730Z,84.08
2017-10-25T05:50:27.104Z,84.00
2017-10-25T05:52:56.178Z,84.02
2017-10-25T05:55:24.491Z,84.14
2017-10-25T05:57:52.838Z,84.02
2017-10-25T06:00:21.175Z,84.02
2017-10-25T06:02:49.475Z,84.04
2017-10-25T06:05:17.817Z,84.10
2017-10-25T06:07:46.127Z,84.12
2017-10-25T06:10:14.441Z,84.02
2017-10-25T06:12:42.775Z,83.97
2017-10-25T06:15:11.082Z,83.96
2017-10-25T06:17:39.395Z,83.99
2017-10-25T06:20:07.723Z,83.95
2017-10-25T06:22:36.058Z,83.82
2017-10-25T06:25:05.146Z,83.75
2017-10-25T06:27:33.566Z,83.59
2017-10-25T06:30:01.891Z,83.46
2017-10-25T06:32:30.207Z,83.23
2017-10-25T06:34:59.282Z,83.33
2017-10-25T06:37:28.381Z,83.27
2017-10-25T06:39:56.703Z,83.41
2017-10-25T06:42:25.821Z,83.47
2017-10-25T06:44:54.133Z,83.68
2017-10-25T06:47:22.460Z,83.49
2017-10-25T06:49:51.555Z,83.29
2017-10-25T06:52:20.632Z,83.30
2017-10-25T06:54:48.934Z,83.28
2017-10-25T06:57:18.028Z,83.18
2017-10-25T06:59:47.124Z,83.16
2017-10-25T07:02:16.201Z,82.75
2017-10-25T07:04:44.515Z,82.84
2017-10-25T07:07:13.640Z,82.89
2017-10-25T07:09:41.972Z,82.94
2017-10-25T07:12:10.333Z,82.77
2017-10-25T07:14:38.682Z,82.94
2017-10-25T07:17:07.047Z,82.95
2017-10-25T07:19:35.359Z,83.06
2017-10-25T07:22:03.712Z,83.05
2017-10-25T07:24:32.027Z,83.19
2017-10-25T07:27:00.372Z,83.10
2017-10-25T07:29:29.487Z,83.08
2017-10-25T07:31:57.814Z,82.90
2017-10-25T07:34:26.141Z,82.99
2017-10-25T07:36:54.487Z,82.88
2017-10-25T07:39:22.826Z,82.35
2017-10-25T07:41:51.146Z,82.27
2017-10-25T07:44:19.463Z,82.22
2017-10-25T07:46:47.791Z,81.94
2017-10-25T07:49:16.125Z,81.74
2017-10-25T07:51:44.453Z,81.52
2017-10-25T07:54:12.773Z,81.37
2017-10-25T07:56:41.853Z,81.02
2017-10-25T07:59:10.195Z,81.00
2017-10-25T08:01:38.527Z,81.07
2017-10-25T08:04:06.855Z,80.83
2017-10-25T08:06:35.157Z,80.70
2017-10-25T08:09:03.512Z,80.47
2017-10-25T08:11:31.825Z,80.21
2017-10-25T08:14:00.907Z,80.20
2017-10-25T08:16:29.231Z,80.09
2017-10-25T08:18:57.564Z,79.81
2017-10-25T08:21:25.889Z,79.44
2017-10-25T08:23:54.221Z,79.13
2017-10-25T08:26:22.549Z,78.94
2017-10-25T08:28:50.905Z,78.84
2017-10-25T08:31:19.214Z,78.90
2017-10-25T08:33:47.555Z,78.96
2017-10-25T08:36:15.874Z,78.89
2017-10-25T08:38:44.275Z,79.03
2017-10-25T08:41:12.528Z,79.17
2017-10-25T08:43:40.863Z,79.10
2017-10-25T08:46:09.196Z,79.29
2017-10-25T08:48:37.523Z,79.15
2017-10-25T08:51:05.960Z,79.04
2017-10-25T08:53:34.292Z,78.98
2017-10-25T08:56:02.601Z,79.00
2017-10-25T08:58:30.952Z,79.00
2017-10-25T09:00:59.276Z,78.99
2017-10-25T09:03:27.611Z,79.30
2017-10-25T09:05:55.925Z,79.17
2017-10-25T09:08:24.259Z,79.46
2017-10-25T09:10:53.348Z,79.95
2017-10-25T09:13:21.670Z,80.04
2017-10-25T09:15:50.021Z,80.45
2017-10-25T09:18:19.278Z,80.54
2017-10-25T09:20:47.581Z,81.43
2017-10-25T09:23:15.921Z,81.80
2017-10-25T09:25:44.236Z,81.93
2017-10-25T09:28:12.582Z,81.82
2017-10-25T09:30:40.905Z,81.26
2017-10-25T09:33:09.241Z,81.01
2017-10-25T09:35:37.545Z,81.22
2017-10-25T09:38:05.864Z,80.95
2017-10-25T09:40:34.980Z,80.86
2017-10-25T09:43:04.068Z,80.67
2017-10-25T09:45:33.183Z,80.78
2017-10-25T09:48:01.535Z,80.48
2017-10-25T09:50:29.852Z,80.43
2017-10-25T09:52:58.199Z,80.17
2017-10-25T09:55:26.535Z,80.05
2017-10-25T09:57:54.861Z,80.18
2017-10-25T10:00:23.198Z,80.09
2017-10-25T10:02:51.519Z,79.99
2017-10-25T10:05:19.864Z,79.67
2017-10-25T10:07:48.173Z,79.79
2017-10-25T10:10:16.499Z,79.84
2017-10-25T10:12:45.638Z,79.70
2017-10-25T10:15:13.939Z,79.74
2017-10-25T10:17:42.285Z,79.65
2017-10-25T10:20:10.621Z,80.57
2017-10-25T10:22:38.932Z,82.62
2017-10-25T10:25:07.251Z,81.85
2017-10-25T10:27:35.570Z,82.88
2017-10-25T10:30:04.687Z,82.92
2017-10-25T10:32:32.993Z,86.71
2017-10-25T10:35:01.304Z,87.53
2017-10-25T10:37:29.636Z,87.84
2017-10-25T10:39:57.956Z,87.41
2017-10-25T10:42:26.320Z,87.38
2017-10-25T10:44:56.482Z,87.64
2017-10-25T10:47:24.794Z,87.15
2017-10-25T10:49:54.021Z,86.35
2017-10-25T10:52:22.379Z,85.66
2017-10-25T10:54:50.709Z,85.53
2017-10-25T10:57:19.676Z,85.40
2017-10-25T10:59:48.023Z,85.32
2017-10-25T11:02:17.106Z,84.30
2017-10-25T11:04:45.449Z,83.57
2017-10-25T11:07:13.769Z,83.40
2017-10-25T11:09:42.081Z,83.22
2017-10-25T11:12:10.418Z,82.41
2017-10-25T11:14:38.728Z,82.75
2017-10-25T11:17:07.492Z,82.11
2017-10-25T11:19:35.812Z,82.07
2017-10-25T11:22:04.910Z,81.62
2017-10-25T11:24:33.245Z,81.24
2017-10-25T11:27:01.585Z,81.26
2017-10-25T11:29:29.924Z,80.82
2017-10-25T11:31:58.334Z,81.21
2017-10-25T11:34:27.435Z,81.49
2017-10-25T11:36:56.513Z,82.12
2017-10-25T11:39:24.869Z,81.37
2017-10-25T11:41:53.206Z,80.63
2017-10-25T11:44:21.528Z,80.95
2017-10-25T11:46:49.849Z,80.84
2017-10-25T11:49:18.180Z,80.02
2017-10-25T11:51:46.496Z,79.57
2017-10-25T11:54:15.617Z,78.72
2017-10-25T11:56:44.712Z,78.82
2017-10-25T11:59:13.796Z,78.62
2017-10-25T12:01:42.124Z,78.18
2017-10-25T12:04:10.433Z,78.36
2017-10-25T12:06:38.756Z,77.90
2017-10-25T12:09:07.824Z,77.54
2017-10-25T12:11:36.182Z,77.32
2017-10-25T12:14:04.542Z,77.61
2017-10-25T12:16:32.857Z,77.00
2017-10-25T12:19:01.160Z,76.81
2017-10-25T12:21:29.576Z,76.55
2017-10-25T12:23:58.650Z,76.33
2017-10-25T12:26:26.977Z,75.86
2017-10-25T12:28:55.287Z,75.02
2017-10-25T12:31:23.601Z,74.46
2017-10-25T12:33:52.680Z,74.09
2017-10-25T12:36:21.013Z,73.74
2017-10-25T12:38:49.341Z,73.24
2017-10-25T12:41:17.649Z,71.95
2017-10-25T12:43:46.733Z,72.02
2017-10-25T12:46:15.064Z,72.29
2017-10-25T12:48:43.398Z,72.06
2017-10-25T12:51:11.758Z,72.58
2017-10-25T12:53:40.064Z,72.87
2017-10-25T12:56:08.389Z,72.93
2017-10-25T12:58:36.696Z,72.99
2017-10-25T13:01:05.019Z,73.42
2017-10-25T13:03:34.112Z,73.01
2017-10-25T13:06:02.415Z,72.99
2017-10-25T13:08:30.756Z,73.03
2017-10-25T13:14:15.619Z,73.06
2017-10-25T13:16:57.092Z,72.77
2017-10-25T13:19:25.438Z,72.61
2017-10-25T13:21:53.756Z,72.78
2017-10-25T13:24:22.322Z,72.76
2017-10-25T13:26:50.632Z,72.21
2017-10-25T13:29:18.942Z,72.03
2017-10-25T13:31:48.070Z,72.16
2017-10-25T13:34:16.394Z,71.89
2017-10-25T13:36:44.696Z,70.97
2017-10-25T13:39:13.776Z,70.50
2017-10-25T13:41:42.102Z,70.65
2017-10-25T13:44:10.424Z,70.08
2017-10-25T13:46:38.761Z,69.94
2017-10-25T13:49:07.070Z,69.81
2017-10-25T13:51:35.369Z,69.58
2017-10-25T13:54:03.685Z,69.51
2017-10-25T13:56:32.761Z,69.59
2017-10-25T13:59:01.202Z,69.16
2017-10-25T14:01:29.523Z,69.30
2017-10-25T14:03:57.839Z,69.61
2017-10-25T14:06:26.912Z,69.83
2017-10-25T14:08:56.031Z,69.83
2017-10-25T14:11:25.140Z,69.73
2017-10-25T14:13:53.687Z,69.92
2017-10-25T14:16:22.009Z,70.30
2017-10-25T14:18:50.331Z,70.68
2017-10-25T14:21:18.669Z,71.21
2017-10-25T14:23:47.795Z,71.77
2017-10-25T14:26:33.863Z,71.62
2017-10-25T14:29:02.212Z,70.40
2017-10-25T14:31:30.544Z,70.17
2017-10-25T14:33:58.865Z,70.39
2017-10-25T14:36:27.192Z,70.67
2017-10-25T14:38:55.530Z,70.86
2017-10-25T14:41:23.829Z,71.33
2017-10-25T14:43:52.155Z,70.96
2017-10-25T14:46:20.477Z,70.43
2017-10-25T14:48:48.803Z,69.99
2017-10-25T14:51:17.112Z,70.94
2017-10-25T14:53:45.422Z,71.09
2017-10-25T14:56:13.749Z,71.31
2017-10-25T14:58:42.105Z,70.77
2017-10-25T15:01:11.176Z,71.37
2017-10-25T15:03:39.493Z,71.19
2017-10-25T15:06:08.564Z,71.49
2017-10-25T15:08:36.882Z,71.52
2017-10-25T15:11:05.198Z,71.70
2017-10-25T15:13:33.523Z,72.10
2017-10-25T15:16:02.586Z,72.21
2017-10-25T15:18:30.918Z,72.32
2017-10-25T15:20:59.241Z,72.38
2017-10-25T15:23:27.576Z,72.62
2017-10-25T15:25:56.673Z,72.44
2017-10-25T15:28:25.743Z,73.04
2017-10-25T15:30:54.071Z,73.01
2017-10-25T15:33:22.431Z,72.85
2017-10-25T15:35:51.512Z,72.28
2017-10-25T15:38:19.832Z,72.50
2017-10-25T15:40:48.145Z,72.51
2017-10-25T15:43:16.508Z,72.39
2017-10-25T15:45:44.809Z,71.68
2017-10-25T15:48:13.119Z,71.95
2017-10-25T15:50:42.226Z,72.44
2017-10-25T15:53:10.521Z,72.36
2017-10-25T15:55:39.607Z,72.59
2017-10-25T15:58:07.929Z,72.73
2017-10-25T16:00:36.362Z,72.76
2017-10-25T16:03:05.460Z,73.17
2017-10-25T16:05:33.796Z,73.76
2017-10-25T16:08:02.136Z,73.62
2017-10-25T16:10:31.205Z,73.68
2017-10-25T16:12:59.530Z,73.83
2017-10-25T16:15:28.605Z,74.22
2017-10-25T16:17:57.730Z,74.56
2017-10-25T16:20:26.826Z,74.42
2017-10-25T16:22:55.919Z,74.92
2017-10-25T16:25:25.021Z,75.28
2017-10-25T16:27:54.123Z,75.48
2017-10-25T16:30:23.249Z,75.62
2017-10-25T16:32:51.592Z,75.81
2017-10-25T16:35:20.702Z,75.96
2017-10-25T16:37:49.039Z,76.17
2017-10-25T16:40:17.397Z,76.21
2017-10-25T16:42:45.714Z,76.49
2017-10-25T16:45:14.027Z,76.54
2017-10-25T16:47:43.111Z,76.65
2017-10-25T16:50:11.424Z,76.68
2017-10-25T16:52:39.729Z,76.61
2017-10-25T16:55:08.077Z,76.64
2017-10-25T16:57:36.865Z,76.64
2017-10-25T17:00:05.924Z,76.71
2017-10-25T17:02:34.231Z,76.90
2017-10-25T17:05:03.317Z,76.97
2017-10-25T17:07:31.628Z,77.17
2017-10-25T17:10:00.024Z,76.95
2017-10-25T17:12:28.359Z,77.03
2017-10-25T17:14:56.696Z,77.06
2017-10-25T17:17:25.015Z,77.12
2017-10-25T17:19:53.341Z,77.04
2017-10-25T17:22:21.657Z,77.11
2017-10-25T17:24:50.000Z,77.11
2017-10-25T17:27:18.347Z,76.98
2017-10-25T17:29:46.659Z,77.19
2017-10-25T17:32:15.739Z,77.20
2017-10-25T17:34:44.063Z,77.25
2017-10-25T17:37:12.385Z,77.33
2017-10-25T17:39:40.710Z,77.56
2017-10-25T17:42:09.035Z,77.47
2017-10-25T17:44:37.365Z,77.56
2017-10-25T17:47:06.473Z,77.51
2017-10-25T17:49:34.793Z,77.41
2017-10-25T17:52:03.149Z,77.45
2017-10-25T17:54:31.497Z,77.53
2017-10-25T17:57:00.573Z,77.54
2017-10-25T17:59:28.887Z,77.55
2017-10-25T18:01:58.045Z,77.54
2017-10-25T18:04:27.208Z,77.62
2017-10-25T18:06:55.592Z,77.67
2017-10-25T18:09:23.917Z,77.92
2017-10-25T18:11:52.248Z,77.99
2017-10-25T18:14:20.572Z,78.00
2017-10-25T18:16:48.917Z,78.19
2017-10-25T18:19:17.232Z,78.22
2017-10-25T18:21:45.549Z,78.24
2017-10-25T18:24:14.673Z,78.18
2017-10-25T18:26:43.000Z,78.50
2017-10-25T18:29:12.089Z,78.57
2017-10-25T18:31:40.417Z,78.77
2017-10-25T18:34:09.516Z,78.75
2017-10-25T18:36:38.615Z,78.62
2017-10-25T18:39:07.782Z,78.58
2017-10-25T18:41:36.111Z,78.48
2017-10-25T18:44:04.438Z,78.52
2017-10-25T18:46:32.914Z,78.61
2017-10-25T18:49:01.263Z,78.76
2017-10-25T18:51:30.674Z,79.41
2017-10-25T18:53:58.971Z,79.74
2017-10-25T18:56:27.318Z,79.92
2017-10-25T18:58:55.904Z,79.91
2017-10-25T19:01:24.344Z,79.83
2017-10-25T19:03:52.726Z,79.42
2017-10-25T19:06:21.065Z,79.15
2017-10-25T19:08:49.947Z,79.04
2017-10-25T19:11:19.023Z,79.11
2017-10-25T19:13:47.338Z,79.88
2017-10-25T19:16:15.674Z,80.19
2017-10-25T19:18:43.993Z,79.77
2017-10-25T19:21:12.339Z,79.58
2017-10-25T19:23:40.702Z,79.41
2017-10-25T19:26:09.032Z,79.45
2017-10-25T19:28:37.358Z,79.82
2017-10-25T19:31:05.673Z,79.95
2017-10-25T19:33:34.041Z,79.98
2017-10-25T19:36:02.354Z,79.95
2017-10-25T19:38:31.442Z,79.92
2017-10-25T19:40:59.800Z,79.97
2017-10-25T19:43:28.107Z,80.13
2017-10-25T19:45:57.227Z,80.37
2017-10-25T19:48:25.545Z,80.44
2017-10-25T19:50:53.866Z,80.26
2017-10-25T19:53:22.196Z,80.23
2017-10-25T19:55:50.544Z,80.25
2017-10-25T19:58:19.633Z,80.30
2017-10-25T20:00:48.730Z,80.14
2017-10-25T20:03:17.053Z,80.27
2017-10-25T20:05:45.371Z,80.69
2017-10-25T20:08:13.720Z,80.85
2017-10-25T20:10:42.045Z,80.91
2017-10-25T20:13:10.376Z,80.96
2017-10-25T20:15:38.718Z,80.98
2017-10-25T20:18:07.058Z,81.03
2017-10-25T20:20:35.373Z,80.99
2017-10-25T20:23:03.717Z,81.03
2017-10-25T20:25:32.051Z,81.25
2017-10-25T20:28:01.124Z,81.45
2017-10-25T20:30:29.449Z,81.45
2017-10-25T20:32:59.170Z,81.46
2017-10-25T20:35:28.478Z,81.67
2017-10-25T20:37:56.818Z,81.88
2017-10-25T20:40:25.135Z,81.97
2017-10-25T20:42:53.471Z,81.92
2017-10-25T20:45:21.826Z,82.02
2017-10-25T20:47:50.144Z,82.09
2017-10-25T20:50:18.483Z,82.19
2017-10-25T20:52:46.822Z,82.24
2017-10-25T20:55:15.914Z,82.28
2017-10-25T20:57:45.036Z,82.39
2017-10-25T21:00:13.346Z,82.50
2017-10-25T21:02:41.662Z,82.59
2017-10-25T21:05:09.986Z,82.80
2017-10-25T21:07:38.303Z,82.96
2017-10-25T21:10:06.616Z,82.90
2017-10-25T21:12:34.934Z,82.95
2017-10-25T21:15:03.267Z,83.08
2017-10-25T21:17:31.589Z,83.31
2017-10-25T21:19:59.911Z,83.46
2017-10-25T21:22:28.223Z,83.55
2017-10-25T21:24:56.543Z,83.79
2017-10-25T21:27:24.868Z,83.81
2017-10-25T21:29:53.939Z,83.89
2017-10-25T21:32:22.264Z,83.97
2017-10-25T21:34:50.567Z,84.03
2017-10-25T21:37:18.898Z,84.26
2017-10-25T21:39:47.232Z,84.42
2017-10-25T21:42:16.340Z,84.66
2017-10-25T21:44:44.689Z,84.77
2017-10-25T21:47:13.017Z,84.89
2017-10-25T21:49:41.352Z,85.03
2017-10-25T21:52:09.683Z,84.94
2017-10-25T21:54:38.004Z,85.04
2017-10-25T21:57:06.345Z,85.32
2017-10-25T21:59:34.662Z,85.70
2017-10-25T22:02:02.994Z,86.04
2017-10-25T22:04:31.349Z,86.26
2017-10-25T22:06:59.693Z,87.15
2017-10-25T22:09:28.008Z,88.30
2017-10-25T22:11:56.345Z,89.20
2017-10-25T22:14:24.691Z,90.09
2017-10-25T22:16:53.787Z,90.34
2017-10-25T22:19:22.860Z,90.46
2017-10-25T22:21:51.179Z,90.67
2017-10-25T22:24:19.617Z,90.85
2017-10-25T22:26:47.936Z,91.03
2017-10-25T22:29:16.248Z,91.14
2017-10-25T22:31:44.575Z,91.43
2017-10-25T22:34:12.888Z,92.00
2017-10-25T22:36:41.250Z,92.29
2017-10-25T22:39:10.326Z,92.60
2017-10-25T22:41:38.646Z,92.88
2017-10-25T22:44:06.985Z,93.04
2017-10-25T22:46:35.298Z,93.12
2017-10-25T22:49:04.381Z,93.32
2017-10-25T22:51:33.485Z,93.55
2017-10-25T22:54:02.573Z,93.72
2017-10-25T22:56:30.908Z,93.92
2017-10-25T22:58:59.223Z,94.13
2017-10-25T23:01:27.573Z,94.25
2017-10-25T23:03:56.594Z,94.33
2017-10-25T23:06:24.905Z,94.32
2017-10-25T23:08:53.207Z,94.26
2017-10-25T23:11:21.530Z,94.20
2017-10-25T23:13:49.863Z,94.06
2017-10-25T23:16:18.955Z,93.97
2017-10-25T23:18:48.063Z,93.87
2017-10-25T23:21:16.371Z,93.77
2017-10-25T23:23:44.697Z,93.67
2017-10-25T23:26:13.715Z,93.56
2017-10-25T23:28:42.822Z,93.52
2017-10-25T23:31:11.160Z,93.34
2017-10-25T23:33:39.481Z,93.26
2017-10-25T23:36:08.638Z,93.15
2017-10-25T23:38:36.961Z,93.06
2017-10-25T23:41:06.053Z,92.94
2017-10-25T23:43:36.013Z,92.80
2017-10-25T23:46:04.369Z,92.72
2017-10-25T23:48:32.693Z,92.69
2017-10-25T23:53:25.669Z,92.51
2017-10-25T23:55:53.997Z,92.32
2017-10-25T23:58:23.407Z,92.17
